createdAt,value
2023-01-19T00:01:27.519Z,8.27
2023-01-19T00:03:54.921Z,5.73
2023-01-19T00:06:22.360Z,9.00
2023-01-19T00:08:52.838Z,6.35
2023-01-19T00:11:20.483Z,2.95
2023-01-19T00:13:50.745Z,5.87
2023-01-19T00:16:22.935Z,6.15
2023-01-19T00:18:52.586Z,6.85
2023-01-19T00:21:21.739Z,5.53
2023-01-19T00:23:51.203Z,7.60
2023-01-19T00:26:21.975Z,10.82
2023-01-19T00:28:50.337Z,5.45
2023-01-19T00:31:20.593Z,9.57
2023-01-19T00:33:49.266Z,2.33
2023-01-19T00:36:16.723Z,3.80
2023-01-19T00:38:44.130Z,6.90
2023-01-19T00:41:11.595Z,5.68
2023-01-19T00:43:38.995Z,4.60
2023-01-19T00:46:06.668Z,6.05
2023-01-19T00:48:34.100Z,7.63
2023-01-19T00:51:01.634Z,5.07
2023-01-19T00:53:32.472Z,5.67
2023-01-19T00:55:59.864Z,9.63
2023-01-19T00:58:27.470Z,7.80
2023-01-19T01:00:57.501Z,6.63
2023-01-19T01:03:28.016Z,2.83
2023-01-19T01:05:55.748Z,5.70
2023-01-19T01:08:23.267Z,5.07
2023-01-19T01:10:51.905Z,4.63
2023-01-19T01:15:53.431Z,2.53
2023-01-19T01:18:22.133Z,2.60
2023-01-19T01:20:49.688Z,6.63
2023-01-19T01:23:23.095Z,3.30
2023-01-19T01:25:50.688Z,5.70
2023-01-19T01:28:18.153Z,4.55
2023-01-19T01:30:45.510Z,5.55
2023-01-19T01:33:13.367Z,9.30
2023-01-19T01:35:40.891Z,6.40
2023-01-19T01:38:09.404Z,4.85
2023-01-19T01:40:40.451Z,3.50
2023-01-19T01:43:17.593Z,6.85
2023-01-19T01:45:45.292Z,4.10
2023-01-19T01:48:22.420Z,3.58
2023-01-19T01:51:27.017Z,2.25
2023-01-19T01:54:11.888Z,4.70
2023-01-19T01:56:44.196Z,2.55
2023-01-19T01:59:26.096Z,4.03
2023-01-19T02:02:18.052Z,2.58
2023-01-19T02:05:04.150Z,5.00
2023-01-19T02:08:14.671Z,3.50
2023-01-19T02:11:03.220Z,5.30
2023-01-19T02:13:33.423Z,3.05
2023-01-19T02:16:08.466Z,3.30
2023-01-19T02:18:37.481Z,4.65
2023-01-19T02:21:30.508Z,5.43
2023-01-19T02:24:01.647Z,4.05
2023-01-19T02:26:44.390Z,2.65
2023-01-19T02:29:17.663Z,3.67
2023-01-19T02:31:45.889Z,6.22
2023-01-19T02:34:17.866Z,3.17
2023-01-19T02:36:53.442Z,4.22
2023-01-19T02:39:31.225Z,3.90
2023-01-19T02:42:09.776Z,3.25
2023-01-19T02:44:39.533Z,2.35
2023-01-19T02:47:07.503Z,1.88
2023-01-19T02:49:34.898Z,1.48
2023-01-19T02:52:02.861Z,2.10
2023-01-19T02:55:09.522Z,3.13
2023-01-19T03:48:54.340Z,1.83
2023-01-19T03:51:22.414Z,0.75
2023-01-19T03:53:50.121Z,1.30
2023-01-19T03:56:22.042Z,1.35
2023-01-19T03:58:49.906Z,1.17
2023-01-19T04:01:22.714Z,2.38
2023-01-19T04:03:51.889Z,2.45
2023-01-19T04:06:21.132Z,1.80
2023-01-19T04:08:52.042Z,1.05
2023-01-19T04:11:19.563Z,1.65
2023-01-19T04:13:47.024Z,1.15
2023-01-19T04:16:14.455Z,1.40
2023-01-19T04:18:42.380Z,1.63
2023-01-19T04:21:09.783Z,1.98
2023-01-19T04:23:37.190Z,1.92
2023-01-19T04:26:07.866Z,2.78
2023-01-19T04:28:37.234Z,1.27
2023-01-19T04:31:07.017Z,4.75
2023-01-19T04:33:35.243Z,1.48
2023-01-19T04:36:04.127Z,1.60
2023-01-19T04:38:31.551Z,1.35
2023-01-19T04:40:58.936Z,3.10
2023-01-19T04:43:26.356Z,1.05
2023-01-19T04:45:53.749Z,1.50
2023-01-19T04:48:22.020Z,1.60
2023-01-19T04:50:52.616Z,1.52
2023-01-19T04:53:19.947Z,1.50
2023-01-19T04:55:47.750Z,1.05
2023-01-19T04:58:15.213Z,1.08
2023-01-19T05:00:43.505Z,1.33
2023-01-19T05:03:10.866Z,0.88
2023-01-19T05:05:38.400Z,1.88
2023-01-19T05:08:06.095Z,0.87
2023-01-19T05:10:33.532Z,1.70
2023-01-19T05:13:01.122Z,2.65
2023-01-19T05:15:29.633Z,3.72
2023-01-19T05:17:58.113Z,2.08
2023-01-19T05:22:53.386Z,1.40
2023-01-19T05:25:20.783Z,3.10
2023-01-19T05:27:48.331Z,1.77
2023-01-19T05:30:16.653Z,2.03
2023-01-19T05:32:44.307Z,46.05
2023-01-19T05:35:13.476Z,2.10
2023-01-19T05:37:41.026Z,2.42
2023-01-19T05:40:09.550Z,2.45
2023-01-19T05:45:05.573Z,2.22
2023-01-19T05:50:00.041Z,2.10
2023-01-19T05:52:27.420Z,14.75
2023-01-19T05:54:55.243Z,2.70
2023-01-19T05:57:23.320Z,20.40
2023-01-19T05:59:50.637Z,3.13
2023-01-19T06:02:18.178Z,5.80
2023-01-19T06:04:45.545Z,3.22
2023-01-19T06:07:12.905Z,7.22
2023-01-19T06:09:40.302Z,5.55
2023-01-19T06:12:07.711Z,32.67
2023-01-19T06:14:36.968Z,17.23
2023-01-19T06:17:06.115Z,6.90
2023-01-19T06:19:34.750Z,3.63
2023-01-19T06:22:02.879Z,4.43
2023-01-19T06:24:30.439Z,20.63
2023-01-19T06:26:57.771Z,27.08
2023-01-19T06:29:25.498Z,14.30
2023-01-19T06:31:53.637Z,38.88
2023-01-19T06:34:21.576Z,5.25
2023-01-19T06:36:48.925Z,8.68
2023-01-19T06:39:16.272Z,4.80
2023-01-19T06:41:43.641Z,5.32
2023-01-19T06:44:10.953Z,4.65
2023-01-19T06:46:38.376Z,5.85
2023-01-19T06:49:05.829Z,7.60
2023-01-19T06:51:33.345Z,2.22
2023-01-19T06:54:00.758Z,2.20
2023-01-19T06:56:28.119Z,1.70
2023-01-19T06:58:56.119Z,4.15
2023-01-19T07:01:23.516Z,4.45
2023-01-19T07:03:51.225Z,5.15
2023-01-19T07:06:18.626Z,8.30
2023-01-19T07:08:46.032Z,7.20
2023-01-19T07:11:25.563Z,4.10
2023-01-19T07:13:59.803Z,4.10
2023-01-19T07:16:27.516Z,5.03
2023-01-19T07:18:55.399Z,6.53
2023-01-19T07:21:23.270Z,7.72
2023-01-19T07:23:53.967Z,6.75
2023-01-19T07:26:24.916Z,5.70
2023-01-19T07:28:52.699Z,6.68
2023-01-19T07:31:20.810Z,3.60
2023-01-19T07:33:48.189Z,3.90
2023-01-19T07:36:15.621Z,3.30
2023-01-19T07:38:43.039Z,3.50
2023-01-19T07:41:10.926Z,3.60
2023-01-19T07:43:38.317Z,8.50
2023-01-19T07:46:07.822Z,3.47
2023-01-19T07:48:35.411Z,10.52
2023-01-19T07:51:05.799Z,3.67
2023-01-19T07:53:33.382Z,4.32
2023-01-19T07:56:00.728Z,5.18
2023-01-19T07:58:28.285Z,6.03
2023-01-19T08:00:55.875Z,7.03
2023-01-19T08:03:23.319Z,5.60
2023-01-19T08:05:53.091Z,12.15
2023-01-19T08:08:20.779Z,7.93
2023-01-19T08:10:52.662Z,6.28
2023-01-19T08:13:20.019Z,5.30
2023-01-19T08:15:52.960Z,3.95
2023-01-19T08:18:21.359Z,4.38
2023-01-19T08:20:48.910Z,7.30
2023-01-19T08:23:18.069Z,3.57
2023-01-19T08:25:46.178Z,2.53
2023-01-19T08:28:16.803Z,4.63
2023-01-19T08:30:45.061Z,5.75
2023-01-19T08:33:13.865Z,3.42
2023-01-19T08:35:47.274Z,4.70
2023-01-19T08:38:15.458Z,6.88
2023-01-19T08:40:43.217Z,8.07
2023-01-19T08:43:16.675Z,6.95
2023-01-19T08:45:50.261Z,9.02
2023-01-19T08:48:24.772Z,4.40
2023-01-19T08:50:53.440Z,3.40
2023-01-19T08:53:23.621Z,7.22
2023-01-19T08:56:03.515Z,6.55
2023-01-19T08:58:30.830Z,9.02
2023-01-19T09:01:01.954Z,10.75
2023-01-19T09:03:30.364Z,11.23
2023-01-19T09:05:57.777Z,4.87
2023-01-19T09:08:25.119Z,7.97
2023-01-19T09:10:52.594Z,6.35
2023-01-19T09:13:20.636Z,6.63
2023-01-19T09:15:48.399Z,8.80
2023-01-19T09:18:20.247Z,5.80
2023-01-19T09:20:50.228Z,4.40
2023-01-19T09:23:20.469Z,5.10
2023-01-19T09:25:48.895Z,10.15
2023-01-19T09:28:17.762Z,7.32
2023-01-19T09:30:45.513Z,7.85
2023-01-19T09:33:16.844Z,8.25
2023-01-19T09:35:47.098Z,6.65
2023-01-19T09:38:16.831Z,10.10
2023-01-19T09:40:53.228Z,5.38
2023-01-19T09:43:35.302Z,6.10
2023-01-19T09:46:18.844Z,13.13
2023-01-19T09:48:52.692Z,7.68
2023-01-19T09:51:27.789Z,13.73
2023-01-19T09:54:19.922Z,6.80
2023-01-19T09:56:52.429Z,3.10
2023-01-19T09:59:30.873Z,3.88
2023-01-19T10:05:12.411Z,4.28
2023-01-19T10:08:21.461Z,13.93
2023-01-19T10:10:54.489Z,4.45
2023-01-19T10:13:48.825Z,5.30
2023-01-19T10:16:47.143Z,4.32
2023-01-19T10:19:33.728Z,8.52
2023-01-19T10:22:22.204Z,5.68
2023-01-19T10:24:56.567Z,3.55
2023-01-19T10:27:30.248Z,3.30
2023-01-19T10:29:59.556Z,6.43
2023-01-19T10:32:33.490Z,3.88
2023-01-19T10:35:01.060Z,1.85
2023-01-19T10:37:34.334Z,2.90
2023-01-19T10:40:29.072Z,4.72
2023-01-19T10:42:57.585Z,5.85
2023-01-19T10:45:30.896Z,4.47
2023-01-19T10:48:06.419Z,2.25
2023-01-19T10:50:41.343Z,4.47
2023-01-19T10:53:22.201Z,7.90
2023-01-19T10:56:23.837Z,3.50
2023-01-19T10:58:51.620Z,2.58
2023-01-19T11:01:26.480Z,2.88
2023-01-19T11:04:00.046Z,3.70
2023-01-19T11:06:30.730Z,5.53
2023-01-19T11:09:30.262Z,7.10
2023-01-19T11:11:57.672Z,3.38
2023-01-19T11:14:29.319Z,7.20
2023-01-19T11:16:58.843Z,6.85
2023-01-19T11:19:31.326Z,7.78
2023-01-19T11:22:33.342Z,2.30
2023-01-19T11:25:04.738Z,3.53
2023-01-19T11:27:37.506Z,2.72
2023-01-19T11:30:25.764Z,6.70
2023-01-19T11:32:54.468Z,14.40
2023-01-19T11:35:39.405Z,4.13
2023-01-19T11:38:12.856Z,3.65
2023-01-19T11:40:55.119Z,3.20
2023-01-19T11:43:43.391Z,3.25
2023-01-19T11:46:17.577Z,2.70
2023-01-19T11:49:13.909Z,5.72
2023-01-19T11:52:13.255Z,4.65
2023-01-19T11:55:01.527Z,5.28
2023-01-19T11:57:29.006Z,5.05
2023-01-19T11:59:58.692Z,3.23
2023-01-19T12:02:37.250Z,6.35
2023-01-19T12:05:14.730Z,6.07
2023-01-19T12:07:45.385Z,5.90
2023-01-19T12:10:38.132Z,2.00
2023-01-19T12:13:05.473Z,2.20
2023-01-19T12:15:42.548Z,2.17
2023-01-19T12:18:32.334Z,1.92
2023-01-19T12:21:01.334Z,2.38
2023-01-19T12:24:03.800Z,2.38
2023-01-19T12:26:42.102Z,1.65
2023-01-19T12:31:43.367Z,2.08
2023-01-19T12:34:42.295Z,1.50
2023-01-19T12:37:30.849Z,1.15
2023-01-19T12:40:14.151Z,2.20
2023-01-19T12:42:47.651Z,1.92
2023-01-19T12:45:20.833Z,1.92
2023-01-19T12:47:53.694Z,1.83
2023-01-19T12:50:25.805Z,1.45
2023-01-19T12:52:58.568Z,1.70
2023-01-19T12:55:33.596Z,3.67
2023-01-19T12:58:10.635Z,5.03
2023-01-19T13:00:42.850Z,8.27
2023-01-19T13:03:19.226Z,6.70
2023-01-19T13:05:56.805Z,9.98
2023-01-19T13:09:00.928Z,11.57
2023-01-19T13:11:33.361Z,11.07
2023-01-19T13:14:01.803Z,15.82
2023-01-19T13:16:29.225Z,11.50
2023-01-19T13:19:01.682Z,7.95
2023-01-19T13:21:58.249Z,8.25
2023-01-19T13:24:45.697Z,15.95
2023-01-19T13:27:13.495Z,20.45
2023-01-19T13:29:43.869Z,5.28
2023-01-19T13:32:18.831Z,2.70
2023-01-19T13:34:54.599Z,13.52
2023-01-19T13:37:27.710Z,8.55
2023-01-19T13:39:55.867Z,18.38
2023-01-19T13:42:34.141Z,14.95
2023-01-19T13:45:16.305Z,15.68
2023-01-19T13:47:48.782Z,4.50
2023-01-19T13:50:24.396Z,4.45
2023-01-19T13:52:54.063Z,10.60
2023-01-19T13:55:23.655Z,10.85
2023-01-19T13:57:52.219Z,17.20
2023-01-19T14:03:23.818Z,14.15
2023-01-19T14:05:55.316Z,7.20
2023-01-19T14:08:25.599Z,4.55
2023-01-19T14:10:56.477Z,2.47
2023-01-19T14:13:34.399Z,2.70
2023-01-19T14:16:13.710Z,2.60
2023-01-19T14:18:41.235Z,3.22
2023-01-19T14:21:14.494Z,5.72
2023-01-19T14:23:55.138Z,5.40
2023-01-19T14:26:37.547Z,36.53
2023-01-19T14:29:28.352Z,19.17
2023-01-19T14:32:01.449Z,12.13
2023-01-19T14:34:45.231Z,4.60
2023-01-19T14:37:28.715Z,6.68
2023-01-19T14:40:08.914Z,37.13
2023-01-19T14:42:42.368Z,33.20
2023-01-19T14:45:29.028Z,48.90
2023-01-19T14:48:18.162Z,32.03
2023-01-19T14:51:02.047Z,46.08
2023-01-19T14:53:37.518Z,12.30
2023-01-19T14:56:06.856Z,52.40
2023-01-19T14:58:35.909Z,17.80
2023-01-19T15:01:04.653Z,12.05
2023-01-19T15:03:43.982Z,19.58
2023-01-19T15:06:16.701Z,19.95
2023-01-19T15:08:45.495Z,7.97
2023-01-19T15:11:31.568Z,13.18
2023-01-19T15:14:00.361Z,9.52
2023-01-19T15:16:31.484Z,7.13
2023-01-19T15:18:58.860Z,5.45
2023-01-19T15:21:26.934Z,5.68
2023-01-19T15:23:55.457Z,6.18
2023-01-19T15:26:26.300Z,6.13
2023-01-19T15:28:55.768Z,6.65
2023-01-19T15:31:26.055Z,7.90
2023-01-19T15:33:54.106Z,9.00
2023-01-19T15:36:24.246Z,6.88
2023-01-19T15:38:51.630Z,7.80
2023-01-19T15:41:30.078Z,7.93
2023-01-19T15:43:58.472Z,9.68
2023-01-19T15:46:26.321Z,9.60
2023-01-19T15:48:54.387Z,16.75
2023-01-19T15:51:27.800Z,20.10
2023-01-19T15:53:55.702Z,39.05
2023-01-19T15:56:27.995Z,51.53
2023-01-19T15:58:57.974Z,105.13
2023-01-19T16:01:35.156Z,58.70
2023-01-19T16:04:06.838Z,21.30
2023-01-19T16:06:34.544Z,46.60
2023-01-19T16:09:03.788Z,39.53
2023-01-19T16:11:34.314Z,54.30
2023-01-19T16:14:02.024Z,43.65
2023-01-19T16:16:29.935Z,38.00
2023-01-19T16:18:58.004Z,33.55
2023-01-19T16:21:26.095Z,34.45
2023-01-19T16:23:53.692Z,35.25
2023-01-19T16:26:34.919Z,33.15
2023-01-19T16:29:09.763Z,8.88
2023-01-19T16:31:39.224Z,20.20
2023-01-19T16:34:07.788Z,29.65
2023-01-19T16:39:12.128Z,21.63
2023-01-19T16:41:40.250Z,15.07
2023-01-19T16:44:09.502Z,18.83
2023-01-19T16:46:40.703Z,15.95
2023-01-19T16:49:16.864Z,21.95
2023-01-19T16:51:44.809Z,25.40
2023-01-19T16:54:19.589Z,27.08
2023-01-19T16:56:48.081Z,20.50
2023-01-19T16:59:17.063Z,17.83
2023-01-19T17:01:45.999Z,37.90
2023-01-19T17:04:14.439Z,33.83
2023-01-19T17:06:41.965Z,25.15
2023-01-19T17:09:10.057Z,17.67
2023-01-19T17:11:40.247Z,19.65
2023-01-19T17:14:15.498Z,21.70
2023-01-19T17:16:44.284Z,19.25
2023-01-19T17:19:16.768Z,18.15
2023-01-19T17:21:49.742Z,18.08
2023-01-19T17:24:17.702Z,19.40
2023-01-19T17:26:45.970Z,19.88
2023-01-19T17:29:13.336Z,30.90
2023-01-19T17:31:41.252Z,33.05
2023-01-19T17:34:09.842Z,19.48
2023-01-19T17:39:09.326Z,12.18
2023-01-19T17:41:36.929Z,29.60
2023-01-19T17:44:06.312Z,17.20
2023-01-19T17:46:37.403Z,27.10
2023-01-19T17:49:07.390Z,19.20
2023-01-19T17:51:35.848Z,10.27
2023-01-19T17:54:04.167Z,29.75
2023-01-19T17:56:36.693Z,21.35
2023-01-19T17:59:06.608Z,16.15
2023-01-19T18:01:38.209Z,31.05
2023-01-19T18:04:07.712Z,49.78
2023-01-19T18:06:35.332Z,65.80
2023-01-19T18:09:04.938Z,57.22
2023-01-19T18:11:32.439Z,17.35
2023-01-19T18:14:02.857Z,37.65
2023-01-19T18:16:30.872Z,9.13
2023-01-19T18:18:58.397Z,7.30
2023-01-19T18:21:28.220Z,8.30
2023-01-19T18:24:02.275Z,12.93
2023-01-19T18:26:31.286Z,9.65
2023-01-19T18:28:58.765Z,23.33
2023-01-19T18:31:27.800Z,35.70
2023-01-19T18:33:55.587Z,24.65
2023-01-19T18:36:23.267Z,14.85
2023-01-19T18:38:51.402Z,19.52
2023-01-19T18:41:21.604Z,13.38
2023-01-19T18:43:49.769Z,19.42
2023-01-19T18:46:17.313Z,20.80
2023-01-19T18:48:44.867Z,22.35
2023-01-19T18:51:15.845Z,28.02
2023-01-19T18:53:45.012Z,20.05
2023-01-19T18:56:15.490Z,21.48
2023-01-19T18:58:44.385Z,11.10
2023-01-19T19:01:32.512Z,9.55
2023-01-19T19:04:01.240Z,17.20
2023-01-19T19:06:29.171Z,14.88
2023-01-19T19:08:59.342Z,8.70
2023-01-19T19:11:28.185Z,8.40
2023-01-19T19:14:00.196Z,7.82
2023-01-19T19:16:28.930Z,7.93
2023-01-19T19:18:56.476Z,7.03
2023-01-19T19:21:25.468Z,6.55
2023-01-19T19:23:58.699Z,8.60
2023-01-19T19:26:28.284Z,18.45
2023-01-19T19:28:55.939Z,6.65
2023-01-19T19:31:26.100Z,8.37
2023-01-19T19:33:55.602Z,5.97
2023-01-19T19:36:25.125Z,8.27
2023-01-19T19:38:52.690Z,9.68
2023-01-19T19:41:27.072Z,12.27
2023-01-19T19:43:55.717Z,9.77
2023-01-19T19:48:53.227Z,7.75
2023-01-19T19:51:27.176Z,6.25
2023-01-19T19:53:58.973Z,6.70
2023-01-19T19:56:31.608Z,6.45
2023-01-19T19:58:59.726Z,5.07
2023-01-19T20:01:32.861Z,7.47
2023-01-19T20:04:10.849Z,6.78
2023-01-19T20:06:44.741Z,7.47
2023-01-19T20:09:14.056Z,6.95
2023-01-19T20:11:44.077Z,10.80
2023-01-19T20:14:14.367Z,8.30
2023-01-19T20:16:42.242Z,7.78
2023-01-19T20:19:10.239Z,8.55
2023-01-19T20:21:41.791Z,7.18
2023-01-19T20:24:15.605Z,6.95
2023-01-19T20:26:48.186Z,8.57
2023-01-19T20:29:16.064Z,8.93
2023-01-19T20:31:51.504Z,9.85
2023-01-19T20:34:22.301Z,11.27
2023-01-19T20:36:51.602Z,10.13
2023-01-19T20:39:21.441Z,18.48
2023-01-19T20:41:51.219Z,17.55
2023-01-19T20:44:23.830Z,20.23
2023-01-19T20:46:52.234Z,27.50
2023-01-19T20:49:19.767Z,24.45
2023-01-19T20:51:47.423Z,21.58
2023-01-19T20:54:18.222Z,16.87
2023-01-19T20:56:45.666Z,18.75
2023-01-19T20:59:13.797Z,16.83
2023-01-19T21:01:42.503Z,13.63
2023-01-19T21:04:10.979Z,15.48
2023-01-19T21:06:39.118Z,12.52
2023-01-19T21:09:08.687Z,12.75
2023-01-19T21:11:38.895Z,14.68
2023-01-19T21:14:07.735Z,13.48
2023-01-19T21:16:36.726Z,16.25
2023-01-19T21:19:05.317Z,19.58
2023-01-19T21:24:02.425Z,16.60
2023-01-19T21:26:31.462Z,17.98
2023-01-19T21:29:00.776Z,15.65
2023-01-19T21:31:29.033Z,18.83
2023-01-19T21:33:59.509Z,19.75
2023-01-19T21:36:27.606Z,17.45
2023-01-19T21:39:00.745Z,16.63
2023-01-19T21:41:30.298Z,20.05
2023-01-19T21:44:00.082Z,19.85
2023-01-19T21:46:33.412Z,23.42
2023-01-19T21:49:07.338Z,21.45
2023-01-19T21:51:37.187Z,26.35
2023-01-19T21:54:06.579Z,22.65
2023-01-19T21:56:35.557Z,28.58
2023-01-19T21:59:03.490Z,29.05
2023-01-19T22:01:34.885Z,27.02
2023-01-19T22:04:02.544Z,27.13
2023-01-19T22:06:30.071Z,22.73
2023-01-19T22:08:58.416Z,18.35
2023-01-19T22:11:25.882Z,24.15
2023-01-19T22:13:54.556Z,18.42
2023-01-19T22:16:23.561Z,22.35
2023-01-19T22:18:59.488Z,17.90
2023-01-19T22:21:35.959Z,23.20
2023-01-19T22:24:05.284Z,23.08
2023-01-19T22:26:34.499Z,18.17
2023-01-19T22:29:04.522Z,21.15
2023-01-19T22:31:32.121Z,17.98
2023-01-19T22:33:59.524Z,19.77
2023-01-19T22:36:31.000Z,14.38
2023-01-19T22:39:05.293Z,14.02
2023-01-19T22:41:43.440Z,21.45
2023-01-19T22:44:23.654Z,32.05
2023-01-19T22:46:55.840Z,15.20
2023-01-19T22:49:23.392Z,18.33
2023-01-19T22:51:50.769Z,17.70
2023-01-19T22:54:18.144Z,23.63
2023-01-19T22:56:45.834Z,29.48
2023-01-19T22:59:13.307Z,17.25
2023-01-19T23:01:43.710Z,15.00
2023-01-19T23:04:15.559Z,17.45
2023-01-19T23:06:46.864Z,13.38
2023-01-19T23:09:15.046Z,17.70
2023-01-19T23:11:50.164Z,14.73
2023-01-19T23:14:21.920Z,13.48
2023-01-19T23:16:49.465Z,13.82
2023-01-19T23:19:18.285Z,13.77
2023-01-19T23:21:46.219Z,13.45
2023-01-19T23:24:13.614Z,20.38
2023-01-19T23:26:41.007Z,20.58
2023-01-19T23:29:14.320Z,17.05
2023-01-19T23:31:48.322Z,14.63
2023-01-19T23:34:16.273Z,16.65
2023-01-19T23:36:44.554Z,17.25
2023-01-19T23:39:19.172Z,17.42
2023-01-19T23:41:47.471Z,14.30
2023-01-19T23:44:15.377Z,14.70
2023-01-19T23:46:43.953Z,15.55
2023-01-19T23:54:08.365Z,14.23
2023-01-19T23:56:38.351Z,12.27
2023-01-19T23:59:12.698Z,15.50
